sensor_id;sensor_type;location;lat;lon;timestamp;pressure;altitude;pressure_sealevel;temperature;humidity
45129;BME280;35512;56.312;101.728;2023-04-27T00:00:02;96646.81;;;-0.63;67.39
45129;BME280;35512;56.312;101.728;2023-04-27T00:02:36;96650.22;;;-0.57;67.42
45129;BME280;35512;56.312;101.728;2023-04-27T00:05:06;96644.28;;;-0.49;66.97
45129;BME280;35512;56.312;101.728;2023-04-27T00:07:35;96643.91;;;-0.42;67.03
45129;BME280;35512;56.312;101.728;2023-04-27T00:10:04;96643.84;;;-0.37;66.38
45129;BME280;35512;56.312;101.728;2023-04-27T00:12:34;96645.84;;;-0.29;66.41
45129;BME280;35512;56.312;101.728;2023-04-27T00:15:03;96637.88;;;-0.29;65.23
45129;BME280;35512;56.312;101.728;2023-04-27T00:17:33;96646.00;;;-0.20;64.59
45129;BME280;35512;56.312;101.728;2023-04-27T00:20:02;96647.50;;;-0.14;65.25
45129;BME280;35512;56.312;101.728;2023-04-27T00:22:32;96643.66;;;-0.03;64.43
45129;BME280;35512;56.312;101.728;2023-04-27T00:25:01;96656.09;;;0.16;64.75
45129;BME280;35512;56.312;101.728;2023-04-27T00:27:31;96650.28;;;0.33;64.14
45129;BME280;35512;56.312;101.728;2023-04-27T00:30:00;96656.84;;;0.55;63.11
45129;BME280;35512;56.312;101.728;2023-04-27T00:32:33;96651.75;;;0.72;63.23
45129;BME280;35512;56.312;101.728;2023-04-27T00:35:02;96647.47;;;0.90;62.66
45129;BME280;35512;56.312;101.728;2023-04-27T00:37:31;96649.84;;;1.20;63.14
45129;BME280;35512;56.312;101.728;2023-04-27T00:40:00;96646.19;;;1.43;62.17
45129;BME280;35512;56.312;101.728;2023-04-27T00:42:29;96648.91;;;1.66;62.42
45129;BME280;35512;56.312;101.728;2023-04-27T00:44:59;96655.38;;;1.88;61.50
45129;BME280;35512;56.312;101.728;2023-04-27T00:47:30;96655.53;;;2.05;60.87
45129;BME280;35512;56.312;101.728;2023-04-27T00:49:59;96651.06;;;2.14;60.28
45129;BME280;35512;56.312;101.728;2023-04-27T00:52:30;96657.50;;;2.36;60.68
45129;BME280;35512;56.312;101.728;2023-04-27T00:55:02;96662.06;;;2.67;60.64
45129;BME280;35512;56.312;101.728;2023-04-27T00:57:35;96659.28;;;3.03;60.19
45129;BME280;35512;56.312;101.728;2023-04-27T01:00:05;96654.25;;;3.42;59.91
45129;BME280;35512;56.312;101.728;2023-04-27T01:02:35;96655.59;;;3.71;58.59
45129;BME280;35512;56.312;101.728;2023-04-27T01:05:06;96656.72;;;3.96;58.40
45129;BME280;35512;56.312;101.728;2023-04-27T01:07:37;96652.97;;;4.32;58.19
45129;BME280;35512;56.312;101.728;2023-04-27T01:10:06;96649.16;;;4.60;57.06
45129;BME280;35512;56.312;101.728;2023-04-27T01:12:38;96653.88;;;4.63;56.37
45129;BME280;35512;56.312;101.728;2023-04-27T01:15:08;96645.06;;;4.62;56.27
45129;BME280;35512;56.312;101.728;2023-04-27T01:17:37;96650.03;;;4.90;55.80
45129;BME280;35512;56.312;101.728;2023-04-27T01:20:06;96653.66;;;5.63;53.85
45129;BME280;35512;56.312;101.728;2023-04-27T01:22:39;96643.06;;;6.72;51.99
45129;BME280;35512;56.312;101.728;2023-04-27T01:25:09;96653.91;;;7.83;52.04
45129;BME280;35512;56.312;101.728;2023-04-27T01:27:38;96645.06;;;9.24;52.67
45129;BME280;35512;56.312;101.728;2023-04-27T01:30:07;96646.53;;;11.07;52.84
45129;BME280;35512;56.312;101.728;2023-04-27T01:32:36;96651.03;;;12.56;51.99
45129;BME280;35512;56.312;101.728;2023-04-27T01:35:07;96646.06;;;12.99;48.28
45129;BME280;35512;56.312;101.728;2023-04-27T01:37:36;96653.75;;;11.72;46.48
45129;BME280;35512;56.312;101.728;2023-04-27T01:40:05;96656.66;;;10.31;47.71
45129;BME280;35512;56.312;101.728;2023-04-27T01:42:34;96666.94;;;9.55;48.80
45129;BME280;35512;56.312;101.728;2023-04-27T01:45:03;96656.84;;;10.03;49.65
45129;BME280;35512;56.312;101.728;2023-04-27T01:47:32;96646.34;;;11.42;48.21
45129;BME280;35512;56.312;101.728;2023-04-27T01:50:01;96662.31;;;12.62;47.30
45129;BME280;35512;56.312;101.728;2023-04-27T01:52:31;96651.50;;;13.41;46.96
45129;BME280;35512;56.312;101.728;2023-04-27T01:55:02;96651.66;;;12.80;44.07
45129;BME280;35512;56.312;101.728;2023-04-27T01:57:31;96647.34;;;11.57;44.90
45129;BME280;35512;56.312;101.728;2023-04-27T02:00:01;96646.28;;;10.92;44.96
45129;BME280;35512;56.312;101.728;2023-04-27T02:02:48;96646.84;;;11.02;43.67
45129;BME280;35512;56.312;101.728;2023-04-27T02:05:23;96647.25;;;11.77;42.40
45129;BME280;35512;56.312;101.728;2023-04-27T02:07:53;96643.31;;;12.96;42.46
45129;BME280;35512;56.312;101.728;2023-04-27T02:10:22;96646.31;;;14.43;41.99
45129;BME280;35512;56.312;101.728;2023-04-27T02:12:59;96646.66;;;14.34;39.33
45129;BME280;35512;56.312;101.728;2023-04-27T02:15:29;96649.78;;;14.44;38.53
45129;BME280;35512;56.312;101.728;2023-04-27T02:18:00;96651.72;;;14.40;38.32
45129;BME280;35512;56.312;101.728;2023-04-27T02:20:31;96634.38;;;14.69;38.30
45129;BME280;35512;56.312;101.728;2023-04-27T02:23:01;96635.66;;;15.48;36.31
45129;BME280;35512;56.312;101.728;2023-04-27T02:25:30;96638.75;;;15.93;35.64
45129;BME280;35512;56.312;101.728;2023-04-27T02:27:59;96626.66;;;15.98;34.94
45129;BME280;35512;56.312;101.728;2023-04-27T02:30:29;96627.06;;;15.78;34.42
45129;BME280;35512;56.312;101.728;2023-04-27T02:32:59;96625.84;;;16.19;33.71
45129;BME280;35512;56.312;101.728;2023-04-27T02:35:28;96625.16;;;15.86;33.13
45129;BME280;35512;56.312;101.728;2023-04-27T02:37:59;96628.97;;;14.73;33.92
45129;BME280;35512;56.312;101.728;2023-04-27T02:40:28;96630.81;;;13.29;34.04
45129;BME280;35512;56.312;101.728;2023-04-27T02:42:57;96619.56;;;13.72;35.62
45129;BME280;35512;56.312;101.728;2023-04-27T02:45:26;96632.56;;;14.11;34.55
45129;BME280;35512;56.312;101.728;2023-04-27T02:47:55;96627.19;;;13.55;33.87
45129;BME280;35512;56.312;101.728;2023-04-27T02:50:24;96625.84;;;13.34;33.36
45129;BME280;35512;56.312;101.728;2023-04-27T02:52:53;96629.84;;;12.65;32.48
45129;BME280;35512;56.312;101.728;2023-04-27T02:55:22;96616.72;;;11.49;33.54
45129;BME280;35512;56.312;101.728;2023-04-27T02:57:52;96612.22;;;10.45;33.45
45129;BME280;35512;56.312;101.728;2023-04-27T03:00:22;96617.09;;;10.20;34.07
45129;BME280;35512;56.312;101.728;2023-04-27T03:02:51;96618.88;;;10.12;34.06
45129;BME280;35512;56.312;101.728;2023-04-27T03:05:21;96608.41;;;11.62;34.72
45129;BME280;35512;56.312;101.728;2023-04-27T03:07:50;96603.09;;;13.46;32.45
45129;BME280;35512;56.312;101.728;2023-04-27T03:10:19;96615.00;;;14.78;31.96
45129;BME280;35512;56.312;101.728;2023-04-27T03:12:47;96599.56;;;14.05;30.96
45129;BME280;35512;56.312;101.728;2023-04-27T03:15:16;96593.66;;;12.84;31.51
45129;BME280;35512;56.312;101.728;2023-04-27T03:17:46;96603.81;;;11.39;31.70
45129;BME280;35512;56.312;101.728;2023-04-27T03:20:15;96597.03;;;10.37;32.36
45129;BME280;35512;56.312;101.728;2023-04-27T03:22:45;96593.59;;;10.20;32.04
45129;BME280;35512;56.312;101.728;2023-04-27T03:25:14;96590.78;;;10.13;32.40
45129;BME280;35512;56.312;101.728;2023-04-27T03:27:43;96583.09;;;10.15;32.30
45129;BME280;35512;56.312;101.728;2023-04-27T03:30:12;96594.91;;;9.71;31.40
45129;BME280;35512;56.312;101.728;2023-04-27T03:32:41;96595.94;;;9.67;31.96
45129;BME280;35512;56.312;101.728;2023-04-27T03:35:13;96585.38;;;9.42;31.24
45129;BME280;35512;56.312;101.728;2023-04-27T03:37:42;96586.38;;;11.10;31.61
45129;BME280;35512;56.312;101.728;2023-04-27T03:40:13;96576.88;;;13.65;31.00
45129;BME280;35512;56.312;101.728;2023-04-27T03:42:42;96577.56;;;16.19;29.84
45129;BME280;35512;56.312;101.728;2023-04-27T03:45:11;96582.31;;;16.89;27.50
45129;BME280;35512;56.312;101.728;2023-04-27T03:47:40;96583.19;;;15.22;26.78
45129;BME280;35512;56.312;101.728;2023-04-27T03:50:09;96580.94;;;13.37;28.00
45129;BME280;35512;56.312;101.728;2023-04-27T03:52:38;96571.59;;;11.84;28.68
45129;BME280;35512;56.312;101.728;2023-04-27T03:55:07;96572.84;;;12.96;29.49
45129;BME280;35512;56.312;101.728;2023-04-27T03:57:39;96571.22;;;13.95;28.91
45129;BME280;35512;56.312;101.728;2023-04-27T04:00:09;96565.44;;;14.04;27.58
45129;BME280;35512;56.312;101.728;2023-04-27T04:02:40;96563.28;;;14.49;28.46
45129;BME280;35512;56.312;101.728;2023-04-27T04:05:10;96557.91;;;15.61;28.13
45129;BME280;35512;56.312;101.728;2023-04-27T04:07:42;96547.50;;;16.41;25.96
45129;BME280;35512;56.312;101.728;2023-04-27T04:10:12;96548.00;;;17.41;26.54
45129;BME280;35512;56.312;101.728;2023-04-27T04:12:41;96553.47;;;18.45;25.33
45129;BME280;35512;56.312;101.728;2023-04-27T04:15:10;96556.56;;;19.52;24.96
45129;BME280;35512;56.312;101.728;2023-04-27T04:17:39;96551.25;;;20.66;24.25
45129;BME280;35512;56.312;101.728;2023-04-27T04:20:09;96538.41;;;20.79;22.42
45129;BME280;35512;56.312;101.728;2023-04-27T04:22:38;96545.53;;;20.20;22.51
45129;BME280;35512;56.312;101.728;2023-04-27T04:25:07;96545.22;;;18.52;22.25
45129;BME280;35512;56.312;101.728;2023-04-27T04:27:36;96540.78;;;15.64;23.68
45129;BME280;35512;56.312;101.728;2023-04-27T04:30:06;96540.31;;;13.48;25.42
45129;BME280;35512;56.312;101.728;2023-04-27T04:32:36;96542.34;;;11.93;26.13
45129;BME280;35512;56.312;101.728;2023-04-27T04:35:06;96546.41;;;12.07;26.90
45129;BME280;35512;56.312;101.728;2023-04-27T04:37:36;96544.72;;;14.84;26.27
45129;BME280;35512;56.312;101.728;2023-04-27T04:40:06;96533.50;;;17.02;25.40
45129;BME280;35512;56.312;101.728;2023-04-27T04:42:39;96531.84;;;19.56;25.05
45129;BME280;35512;56.312;101.728;2023-04-27T04:45:09;96507.88;;;21.10;23.52
45129;BME280;35512;56.312;101.728;2023-04-27T04:47:38;96512.38;;;21.66;23.09
45129;BME280;35512;56.312;101.728;2023-04-27T04:50:07;96523.97;;;22.16;22.69
45129;BME280;35512;56.312;101.728;2023-04-27T04:52:40;96527.25;;;22.66;21.43
45129;BME280;35512;56.312;101.728;2023-04-27T04:55:11;96515.47;;;23.39;21.81
45129;BME280;35512;56.312;101.728;2023-04-27T04:57:40;96503.88;;;24.24;20.63
45129;BME280;35512;56.312;101.728;2023-04-27T05:00:09;96516.47;;;22.72;20.39
45129;BME280;35512;56.312;101.728;2023-04-27T05:02:42;96507.81;;;20.07;20.44
45129;BME280;35512;56.312;101.728;2023-04-27T05:05:11;96517.34;;;17.64;21.54
45129;BME280;35512;56.312;101.728;2023-04-27T05:07:40;96505.97;;;17.69;22.78
45129;BME280;35512;56.312;101.728;2023-04-27T05:10:09;96516.19;;;18.31;21.84
45129;BME280;35512;56.312;101.728;2023-04-27T05:12:38;96516.22;;;17.16;21.85
45129;BME280;35512;56.312;101.728;2023-04-27T05:15:07;96504.22;;;15.62;21.87
45129;BME280;35512;56.312;101.728;2023-04-27T05:17:37;96512.66;;;13.98;22.38
45129;BME280;35512;56.312;101.728;2023-04-27T05:20:06;96513.63;;;15.10;23.24
45129;BME280;35512;56.312;101.728;2023-04-27T05:22:36;96504.25;;;16.50;22.57
45129;BME280;35512;56.312;101.728;2023-04-27T05:25:05;96506.63;;;15.38;22.36
45129;BME280;35512;56.312;101.728;2023-04-27T05:27:34;96510.91;;;14.81;23.11
45129;BME280;35512;56.312;101.728;2023-04-27T05:30:03;96521.69;;;16.60;22.70
45129;BME280;35512;56.312;101.728;2023-04-27T05:32:32;96519.16;;;16.31;21.50
45129;BME280;35512;56.312;101.728;2023-04-27T05:35:04;96507.34;;;14.45;21.78
45129;BME280;35512;56.312;101.728;2023-04-27T05:37:33;96513.34;;;12.65;22.42
45129;BME280;35512;56.312;101.728;2023-04-27T05:40:02;96512.75;;;11.20;23.93
45129;BME280;35512;56.312;101.728;2023-04-27T05:42:33;96503.31;;;10.37;24.61
45129;BME280;35512;56.312;101.728;2023-04-27T05:45:02;96514.63;;;10.23;25.10
45129;BME280;35512;56.312;101.728;2023-04-27T05:47:32;96507.56;;;12.26;25.49
45129;BME280;35512;56.312;101.728;2023-04-27T05:50:02;96516.31;;;14.60;24.04
45129;BME280;35512;56.312;101.728;2023-04-27T05:52:31;96502.47;;;16.78;23.15
45129;BME280;35512;56.312;101.728;2023-04-27T05:55:00;96519.44;;;18.22;21.96
45129;BME280;35512;56.312;101.728;2023-04-27T05:57:31;96500.09;;;18.36;21.46
45129;BME280;35512;56.312;101.728;2023-04-27T05:59:59;96485.56;;;16.49;21.74
45129;BME280;35512;56.312;101.728;2023-04-27T06:02:39;96501.78;;;14.01;22.76
45129;BME280;35512;56.312;101.728;2023-04-27T06:05:09;96510.31;;;12.33;23.28
45129;BME280;35512;56.312;101.728;2023-04-27T06:07:38;96509.81;;;11.29;24.41
45129;BME280;35512;56.312;101.728;2023-04-27T06:10:12;96499.75;;;10.76;25.02
45129;BME280;35512;56.312;101.728;2023-04-27T06:12:41;96500.81;;;10.71;25.05
45129;BME280;35512;56.312;101.728;2023-04-27T06:15:13;96503.38;;;11.67;25.03
45129;BME280;35512;56.312;101.728;2023-04-27T06:17:42;96484.75;;;11.62;24.33
45129;BME280;35512;56.312;101.728;2023-04-27T06:20:14;96486.94;;;10.73;24.64
45129;BME280;35512;56.312;101.728;2023-04-27T06:22:43;96485.38;;;10.06;25.17
45129;BME280;35512;56.312;101.728;2023-04-27T06:25:14;96487.63;;;9.80;25.69
45129;BME280;35512;56.312;101.728;2023-04-27T06:27:43;96493.97;;;9.53;25.75
45129;BME280;35512;56.312;101.728;2023-04-27T06:30:12;96499.75;;;9.00;26.51
45129;BME280;35512;56.312;101.728;2023-04-27T06:32:41;96499.50;;;8.89;26.37
45129;BME280;35512;56.312;101.728;2023-04-27T06:35:10;96504.88;;;9.05;26.65
45129;BME280;35512;56.312;101.728;2023-04-27T06:37:39;96485.25;;;9.04;26.97
45129;BME280;35512;56.312;101.728;2023-04-27T06:40:08;96483.00;;;8.74;26.62
45129;BME280;35512;56.312;101.728;2023-04-27T06:42:37;96498.13;;;8.79;27.29
45129;BME280;35512;56.312;101.728;2023-04-27T06:45:06;96495.16;;;10.34;27.32
45129;BME280;35512;56.312;101.728;2023-04-27T06:47:35;96487.22;;;11.75;26.53
45129;BME280;35512;56.312;101.728;2023-04-27T06:50:05;96475.25;;;12.47;25.55
45129;BME280;35512;56.312;101.728;2023-04-27T06:52:34;96480.41;;;12.60;24.61
45129;BME280;35512;56.312;101.728;2023-04-27T06:55:03;96488.78;;;11.76;24.76
45129;BME280;35512;56.312;101.728;2023-04-27T06:57:32;96501.25;;;11.54;25.35
45129;BME280;35512;56.312;101.728;2023-04-27T07:00:01;96496.69;;;12.22;24.96
45129;BME280;35512;56.312;101.728;2023-04-27T07:02:34;96503.88;;;12.45;24.67
45129;BME280;35512;56.312;101.728;2023-04-27T07:05:03;96508.56;;;11.49;24.47
45129;BME280;35512;56.312;101.728;2023-04-27T07:07:32;96502.22;;;10.19;25.39
45129;BME280;35512;56.312;101.728;2023-04-27T07:10:02;96507.97;;;9.23;26.12
45129;BME280;35512;56.312;101.728;2023-04-27T07:12:31;96505.06;;;8.64;26.65
45129;BME280;35512;56.312;101.728;2023-04-27T07:15:00;96498.19;;;8.51;26.83
45129;BME280;35512;56.312;101.728;2023-04-27T07:17:32;96493.66;;;8.39;27.07
45129;BME280;35512;56.312;101.728;2023-04-27T07:20:02;96496.50;;;8.30;27.69
45129;BME280;35512;56.312;101.728;2023-04-27T07:22:33;96500.28;;;8.13;27.92
45129;BME280;35512;56.312;101.728;2023-04-27T07:25:02;96494.28;;;8.04;27.66
45129;BME280;35512;56.312;101.728;2023-04-27T07:27:32;96475.41;;;8.16;27.79
45129;BME280;35512;56.312;101.728;2023-04-27T07:30:04;96486.22;;;8.04;28.07
45129;BME280;35512;56.312;101.728;2023-04-27T07:32:39;96496.38;;;7.82;28.22
45129;BME280;35512;56.312;101.728;2023-04-27T07:35:09;96510.63;;;7.83;28.66
45129;BME280;35512;56.312;101.728;2023-04-27T07:37:38;96503.91;;;7.76;28.73
45129;BME280;35512;56.312;101.728;2023-04-27T07:40:08;96491.22;;;7.61;28.65
45129;BME280;35512;56.312;101.728;2023-04-27T07:42:44;96493.28;;;7.39;28.67
45129;BME280;35512;56.312;101.728;2023-04-27T07:45:16;96504.47;;;7.29;29.62
45129;BME280;35512;56.312;101.728;2023-04-27T07:47:45;96483.69;;;7.14;29.08
45129;BME280;35512;56.312;101.728;2023-04-27T07:50:15;96498.91;;;7.22;29.45
45129;BME280;35512;56.312;101.728;2023-04-27T07:52:45;96496.75;;;7.27;29.55
45129;BME280;35512;56.312;101.728;2023-04-27T07:55:14;96494.88;;;7.16;29.81
45129;BME280;35512;56.312;101.728;2023-04-27T07:57:43;96498.00;;;7.30;29.47
45129;BME280;35512;56.312;101.728;2023-04-27T08:00:12;96501.44;;;7.55;30.02
45129;BME280;35512;56.312;101.728;2023-04-27T08:02:42;96497.78;;;7.76;29.65
45129;BME280;35512;56.312;101.728;2023-04-27T08:05:11;96499.66;;;7.75;29.66
45129;BME280;35512;56.312;101.728;2023-04-27T08:07:42;96500.94;;;7.66;29.23
45129;BME280;35512;56.312;101.728;2023-04-27T08:10:13;96498.59;;;7.64;29.26
45129;BME280;35512;56.312;101.728;2023-04-27T08:12:42;96509.75;;;7.78;29.39
45129;BME280;35512;56.312;101.728;2023-04-27T08:15:11;96507.00;;;7.91;29.90
45129;BME280;35512;56.312;101.728;2023-04-27T08:17:40;96496.28;;;8.07;29.71
45129;BME280;35512;56.312;101.728;2023-04-27T08:20:10;96494.84;;;8.25;29.65
45129;BME280;35512;56.312;101.728;2023-04-27T08:22:40;96499.69;;;8.48;29.34
45129;BME280;35512;56.312;101.728;2023-04-27T08:25:09;96494.41;;;8.23;29.64
45129;BME280;35512;56.312;101.728;2023-04-27T08:27:38;96497.06;;;8.07;29.25
45129;BME280;35512;56.312;101.728;2023-04-27T08:30:08;96501.34;;;7.80;29.76
45129;BME280;35512;56.312;101.728;2023-04-27T08:32:37;96497.19;;;7.83;29.89
45129;BME280;35512;56.312;101.728;2023-04-27T08:35:06;96487.38;;;7.74;29.62
45129;BME280;35512;56.312;101.728;2023-04-27T08:37:35;96499.94;;;7.58;29.83
45129;BME280;35512;56.312;101.728;2023-04-27T08:40:05;96497.63;;;7.44;29.60
45129;BME280;35512;56.312;101.728;2023-04-27T08:42:35;96490.38;;;7.73;30.17
45129;BME280;35512;56.312;101.728;2023-04-27T08:45:06;96488.38;;;7.98;29.60
45129;BME280;35512;56.312;101.728;2023-04-27T08:47:37;96499.59;;;8.16;29.95
45129;BME280;35512;56.312;101.728;2023-04-27T08:50:11;96487.59;;;7.98;29.34
45129;BME280;35512;56.312;101.728;2023-04-27T08:52:43;96485.56;;;7.66;29.57
45129;BME280;35512;56.312;101.728;2023-04-27T08:55:13;96490.44;;;7.48;30.48
45129;BME280;35512;56.312;101.728;2023-04-27T08:57:56;96474.34;;;7.36;30.57
45129;BME280;35512;56.312;101.728;2023-04-27T09:00:26;96491.75;;;7.14;30.09
45129;BME280;35512;56.312;101.728;2023-04-27T09:03:26;96487.38;;;6.97;30.55
45129;BME280;35512;56.312;101.728;2023-04-27T09:05:55;96489.44;;;6.75;30.77
45129;BME280;35512;56.312;101.728;2023-04-27T09:08:48;96495.28;;;6.31;31.13
45129;BME280;35512;56.312;101.728;2023-04-27T09:11:29;96492.09;;;6.04;31.17
45129;BME280;35512;56.312;101.728;2023-04-27T09:14:00;96494.66;;;6.01;31.61
45129;BME280;35512;56.312;101.728;2023-04-27T09:16:30;96480.53;;;6.25;31.55
45129;BME280;35512;56.312;101.728;2023-04-27T09:18:59;96481.47;;;6.54;31.43
45129;BME280;35512;56.312;101.728;2023-04-27T09:21:29;96485.81;;;6.46;31.58
45129;BME280;35512;56.312;101.728;2023-04-27T09:24:11;96483.56;;;6.23;31.69
45129;BME280;35512;56.312;101.728;2023-04-27T09:26:48;96487.88;;;6.16;31.82
45129;BME280;35512;56.312;101.728;2023-04-27T09:29:17;96475.47;;;6.11;31.63
45129;BME280;35512;56.312;101.728;2023-04-27T09:31:46;96473.22;;;6.01;32.04
45129;BME280;35512;56.312;101.728;2023-04-27T09:34:15;96476.06;;;5.96;31.80
45129;BME280;35512;56.312;101.728;2023-04-27T09:36:44;96472.81;;;5.90;32.56
45129;BME280;35512;56.312;101.728;2023-04-27T09:39:14;96468.22;;;5.78;32.08
45129;BME280;35512;56.312;101.728;2023-04-27T09:41:44;96472.94;;;5.93;32.31
45129;BME280;35512;56.312;101.728;2023-04-27T09:44:14;96469.56;;;6.18;32.47
45129;BME280;35512;56.312;101.728;2023-04-27T09:46:44;96472.41;;;6.46;32.00
45129;BME280;35512;56.312;101.728;2023-04-27T09:49:15;96474.09;;;6.51;31.96
45129;BME280;35512;56.312;101.728;2023-04-27T09:51:45;96483.44;;;6.32;31.92
45129;BME280;35512;56.312;101.728;2023-04-27T09:54:15;96486.19;;;5.99;32.78
45129;BME280;35512;56.312;101.728;2023-04-27T09:56:51;96483.81;;;5.76;32.19
45129;BME280;35512;56.312;101.728;2023-04-27T09:59:46;96487.13;;;5.61;33.07
45129;BME280;35512;56.312;101.728;2023-04-27T10:02:18;96492.72;;;5.68;33.07
45129;BME280;35512;56.312;101.728;2023-04-27T10:07:38;96482.84;;;6.14;33.07
45129;BME280;35512;56.312;101.728;2023-04-27T10:10:15;96487.03;;;6.36;32.86
45129;BME280;35512;56.312;101.728;2023-04-27T10:12:56;96485.19;;;6.62;32.77
45129;BME280;35512;56.312;101.728;2023-04-27T10:15:27;96481.03;;;6.76;32.89
45129;BME280;35512;56.312;101.728;2023-04-27T10:18:03;96462.47;;;6.59;32.40
45129;BME280;35512;56.312;101.728;2023-04-27T10:20:35;96481.47;;;6.41;32.20
45129;BME280;35512;56.312;101.728;2023-04-27T10:23:04;96485.41;;;6.11;32.01
45129;BME280;35512;56.312;101.728;2023-04-27T10:25:38;96485.97;;;5.83;32.56
45129;BME280;35512;56.312;101.728;2023-04-27T10:28:15;96485.41;;;5.56;32.21
45129;BME280;35512;56.312;101.728;2023-04-27T10:30:45;96493.38;;;5.44;33.24
45129;BME280;35512;56.312;101.728;2023-04-27T10:33:18;96498.53;;;5.28;33.40
45129;BME280;35512;56.312;101.728;2023-04-27T10:35:54;96492.00;;;5.16;33.47
45129;BME280;35512;56.312;101.728;2023-04-27T10:38:29;96483.44;;;5.02;34.22
45129;BME280;35512;56.312;101.728;2023-04-27T10:41:02;96484.88;;;4.90;33.70
45129;BME280;35512;56.312;101.728;2023-04-27T10:43:34;96485.22;;;4.89;34.72
45129;BME280;35512;56.312;101.728;2023-04-27T10:48:40;96488.97;;;4.97;34.47
45129;BME280;35512;56.312;101.728;2023-04-27T10:51:14;96492.91;;;4.90;34.57
45129;BME280;35512;56.312;101.728;2023-04-27T10:53:44;96508.84;;;4.87;35.40
45129;BME280;35512;56.312;101.728;2023-04-27T10:56:15;96509.25;;;4.68;35.24
45129;BME280;35512;56.312;101.728;2023-04-27T10:58:44;96511.50;;;4.48;36.20
45129;BME280;35512;56.312;101.728;2023-04-27T11:01:25;96514.09;;;4.27;36.14
45129;BME280;35512;56.312;101.728;2023-04-27T11:04:00;96514.47;;;4.08;36.15
45129;BME280;35512;56.312;101.728;2023-04-27T11:06:31;96522.81;;;3.89;37.28
45129;BME280;35512;56.312;101.728;2023-04-27T11:09:01;96515.91;;;3.70;37.52
45129;BME280;35512;56.312;101.728;2023-04-27T11:11:29;96521.91;;;3.59;37.99
45129;BME280;35512;56.312;101.728;2023-04-27T11:13:58;96518.56;;;3.53;37.99
45129;BME280;35512;56.312;101.728;2023-04-27T11:16:28;96519.22;;;3.59;38.89
45129;BME280;35512;56.312;101.728;2023-04-27T11:19:05;96533.03;;;3.43;39.85
45129;BME280;35512;56.312;101.728;2023-04-27T11:21:35;96536.28;;;3.22;42.43
45129;BME280;35512;56.312;101.728;2023-04-27T11:24:07;96524.47;;;2.97;43.24
45129;BME280;35512;56.312;101.728;2023-04-27T11:26:38;96546.41;;;2.94;43.55
45129;BME280;35512;56.312;101.728;2023-04-27T11:29:09;96531.41;;;3.07;44.55
45129;BME280;35512;56.312;101.728;2023-04-27T11:31:46;96544.88;;;3.11;44.86
45129;BME280;35512;56.312;101.728;2023-04-27T11:34:21;96548.19;;;2.99;45.24
45129;BME280;35512;56.312;101.728;2023-04-27T11:36:58;96554.50;;;2.72;45.14
45129;BME280;35512;56.312;101.728;2023-04-27T11:39:44;96543.56;;;2.42;45.35
45129;BME280;35512;56.312;101.728;2023-04-27T11:42:15;96554.22;;;2.19;45.76
45129;BME280;35512;56.312;101.728;2023-04-27T11:45:06;96552.56;;;2.00;45.16
45129;BME280;35512;56.312;101.728;2023-04-27T11:47:38;96553.94;;;1.98;45.16
45129;BME280;35512;56.312;101.728;2023-04-27T11:50:09;96547.81;;;1.97;45.16
45129;BME280;35512;56.312;101.728;2023-04-27T11:52:39;96544.50;;;1.92;44.99
45129;BME280;35512;56.312;101.728;2023-04-27T11:55:08;96549.94;;;1.86;45.13
45129;BME280;35512;56.312;101.728;2023-04-27T11:57:43;96554.13;;;1.79;45.07
45129;BME280;35512;56.312;101.728;2023-04-27T12:00:14;96551.03;;;1.63;44.88
45129;BME280;35512;56.312;101.728;2023-04-27T12:02:44;96564.69;;;1.47;44.77
45129;BME280;35512;56.312;101.728;2023-04-27T12:05:13;96568.94;;;1.34;44.98
45129;BME280;35512;56.312;101.728;2023-04-27T12:07:43;96563.22;;;1.27;44.54
45129;BME280;35512;56.312;101.728;2023-04-27T12:10:12;96576.63;;;1.22;45.26
45129;BME280;35512;56.312;101.728;2023-04-27T12:12:41;96569.03;;;1.15;45.03
45129;BME280;35512;56.312;101.728;2023-04-27T12:15:10;96571.63;;;1.07;44.60
45129;BME280;35512;56.312;101.728;2023-04-27T12:17:39;96579.69;;;1.01;45.23
45129;BME280;35512;56.312;101.728;2023-04-27T12:20:09;96587.38;;;1.03;45.33
45129;BME280;35512;56.312;101.728;2023-04-27T12:22:39;96577.81;;;1.02;45.27
45129;BME280;35512;56.312;101.728;2023-04-27T12:25:09;96583.41;;;1.14;45.08
45129;BME280;35512;56.312;101.728;2023-04-27T12:27:38;96583.03;;;1.21;44.94
45129;BME280;35512;56.312;101.728;2023-04-27T12:30:07;96576.84;;;1.26;45.47
45129;BME280;35512;56.312;101.728;2023-04-27T12:32:36;96581.94;;;1.36;45.21
45129;BME280;35512;56.312;101.728;2023-04-27T12:35:06;96590.78;;;1.45;44.94
45129;BME280;35512;56.312;101.728;2023-04-27T12:37:36;96586.75;;;1.48;45.11
45129;BME280;35512;56.312;101.728;2023-04-27T12:40:05;96581.13;;;1.49;45.30
45129;BME280;35512;56.312;101.728;2023-04-27T12:42:36;96576.00;;;1.53;45.49
45129;BME280;35512;56.312;101.728;2023-04-27T12:45:05;96575.91;;;1.44;45.86
45129;BME280;35512;56.312;101.728;2023-04-27T12:47:35;96567.56;;;1.23;46.42
45129;BME280;35512;56.312;101.728;2023-04-27T12:50:07;96568.78;;;0.89;47.09
45129;BME280;35512;56.312;101.728;2023-04-27T12:52:37;96576.63;;;0.66;47.63
45129;BME280;35512;56.312;101.728;2023-04-27T12:55:06;96573.66;;;0.54;47.76
45129;BME280;35512;56.312;101.728;2023-04-27T12:57:51;96579.06;;;0.49;48.29
45129;BME280;35512;56.312;101.728;2023-04-27T13:00:21;96576.41;;;0.49;48.11
45129;BME280;35512;56.312;101.728;2023-04-27T13:02:51;96577.00;;;0.60;47.64
45129;BME280;35512;56.312;101.728;2023-04-27T13:05:20;96573.09;;;0.71;48.22
45129;BME280;35512;56.312;101.728;2023-04-27T13:07:52;96561.97;;;0.83;47.93